Time;durP1;ratioP1;P1;durP2;ratioP2;P2;SDS_P1;SDS_P2;PMS_P1;PMS_P2;Temp;Humidity;BMP_temperature;BMP_pressure;BME280_temperature;BME280_humidity;BME280_pressure;Samples;Min_cycle;Max_cycle;Signal;HPM_P1;HPM_P2
2023/12/09 00:01:03;;;;;;;32.35;20.50;;;;;;;;;;4996049;28;20046;-57
2023/12/09 00:03:28;;;;;;;35.97;21.85;;;;;;;;;;4995835;28;20092;-57
2023/12/09 00:05:53;;;;;;;30.38;18.88;;;;;;;;;;4994751;28;20045;-57
2023/12/09 00:08:19;;;;;;;30.63;19.30;;;;;;;;;;4994414;28;20044;-57
2023/12/09 00:10:44;;;;;;;34.00;20.65;;;;;;;;;;4994187;28;20038;-57
2023/12/09 00:13:10;;;;;;;31.27;19.83;;;;;;;;;;4995898;28;20117;-57
2023/12/09 00:15:37;;;;;;;31.95;20.33;;;;;;;;;;4995807;28;20038;-57
2023/12/09 00:18:03;;;;;;;33.28;19.63;;;;;;;;;;5009064;23;20054;-58
2023/12/09 00:20:29;;;;;;;32.00;20.20;;;;;;;;;;5013471;28;20030;-57
2023/12/09 00:22:54;;;;;;;34.72;21.35;;;;;;;;;;4997867;28;20030;-58
2023/12/09 00:25:20;;;;;;;33.05;21.10;;;;;;;;;;5015243;28;20038;-58
2023/12/09 00:27:45;;;;;;;30.77;19.40;;;;;;;;;;5014906;28;20098;-58
2023/12/09 00:30:11;;;;;;;33.50;20.85;;;;;;;;;;5015363;28;20029;-57
2023/12/09 00:32:36;;;;;;;31.52;19.30;;;;;;;;;;5014833;28;20058;-57
2023/12/09 00:35:01;;;;;;;30.90;19.55;;;;;;;;;;5014988;28;20384;-57
2023/12/09 00:37:27;;;;;;;33.83;21.10;;;;;;;;;;5014831;28;20041;-57
2023/12/09 00:39:52;;;;;;;37.97;21.55;;;;;;;;;;5015419;28;20484;-57
2023/12/09 00:42:18;;;;;;;36.97;22.33;;;;;;;;;;5015502;28;20022;-57
2023/12/09 00:44:43;;;;;;;35.08;21.10;;;;;;;;;;5014871;28;20045;-57
2023/12/09 00:47:09;;;;;;;33.45;19.35;;;;;;;;;;5015275;28;20026;-57
2023/12/09 00:49:34;;;;;;;34.33;20.70;;;;;;;;;;4997212;28;20065;-57
2023/12/09 00:52:00;;;;;;;37.20;21.02;;;;;;;;;;5014730;28;20117;-57
2023/12/09 00:54:25;;;;;;;37.03;20.58;;;;;;;;;;5014597;28;20034;-57
2023/12/09 00:56:51;;;;;;;36.75;21.13;;;;;;;;;;5014603;28;20045;-58
2023/12/09 00:59:16;;;;;;;42.47;22.27;;;;;;;;;;5014609;28;20026;-57
2023/12/09 01:01:42;;;;;;;33.13;19.92;;;;;;;;;;5014898;28;20089;-57
2023/12/09 01:04:07;;;;;;;36.05;20.27;;;;;;;;;;5014550;28;20053;-57
2023/12/09 01:06:33;;;;;;;35.40;21.52;;;;;;;;;;5013849;28;20092;-57
2023/12/09 01:08:58;;;;;;;31.35;20.27;;;;;;;;;;5014450;28;20033;-57
2023/12/09 01:11:24;;;;;;;36.63;22.13;;;;;;;;;;5014874;28;20041;-57
2023/12/09 01:13:49;;;;;;;33.85;20.70;;;;;;;;;;5014473;28;20026;-57
2023/12/09 01:16:15;;;;;;;33.53;20.30;;;;;;;;;;5014188;28;20104;-57
2023/12/09 01:18:40;;;;;;;37.67;22.55;;;;;;;;;;5014379;28;20396;-57
2023/12/09 01:21:06;;;;;;;41.47;23.10;;;;;;;;;;5014296;28;20133;-57
2023/12/09 01:23:31;;;;;;;35.97;21.20;;;;;;;;;;5014047;28;20033;-57
2023/12/09 01:25:56;;;;;;;37.85;21.38;;;;;;;;;;4996691;28;20041;-57
2023/12/09 01:28:22;;;;;;;33.97;19.88;;;;;;;;;;4996407;28;20029;-57
2023/12/09 01:30:47;;;;;;;33.25;20.27;;;;;;;;;;5014359;28;20053;-57
2023/12/09 01:33:13;;;;;;;36.88;20.42;;;;;;;;;;5014593;28;20045;-57
2023/12/09 01:35:38;;;;;;;34.40;19.85;;;;;;;;;;4996516;28;20080;-58
2023/12/09 01:38:04;;;;;;;37.42;20.63;;;;;;;;;;5013896;28;20041;-57
2023/12/09 01:40:29;;;;;;;37.60;20.83;;;;;;;;;;5014422;28;20049;-58
2023/12/09 01:42:54;;;;;;;37.38;22.00;;;;;;;;;;5013861;28;20026;-58
2023/12/09 01:45:20;;;;;;;39.42;21.63;;;;;;;;;;5014004;28;20029;-58
2023/12/09 01:47:47;;;;;;;39.38;21.83;;;;;;;;;;4996294;28;20098;-58
2023/12/09 01:50:13;;;;;;;40.15;22.20;;;;;;;;;;5013801;28;20116;-58
2023/12/09 01:52:38;;;;;;;39.17;22.10;;;;;;;;;;5013696;28;20066;-59
2023/12/09 01:55:04;;;;;;;38.47;21.60;;;;;;;;;;5014062;28;20046;-59
2023/12/09 01:57:29;;;;;;;37.72;21.38;;;;;;;;;;5014131;28;20040;-59
2023/12/09 01:59:55;;;;;;;41.38;22.05;;;;;;;;;;5013973;28;20026;-57
2023/12/09 02:02:20;;;;;;;37.35;21.50;;;;;;;;;;5013889;28;20092;-58
2023/12/09 02:04:45;;;;;;;42.75;22.98;;;;;;;;;;4996048;28;20038;-57
2023/12/09 02:07:12;;;;;;;37.40;21.48;;;;;;;;;;5004282;23;20061;-60
2023/12/09 02:09:41;;;;;;;39.58;22.17;;;;;;;;;;5034405;23;20059;-57
2023/12/09 02:12:12;;;;;;;35.35;21.05;;;;;;;;;;5027577;23;20428;-57
2023/12/09 02:14:49;;;;;;;38.60;21.98;;;;;;;;;;5013591;28;20033;-61
2023/12/09 02:17:42;;;;;;;37.13;21.13;;;;;;;;;;4979769;28;20058;-61
2023/12/09 02:20:08;;;;;;;42.63;23.63;;;;;;;;;;5012222;28;20034;-62
2023/12/09 02:22:34;;;;;;;43.25;22.60;;;;;;;;;;5017326;28;20069;-62
2023/12/09 02:24:59;;;;;;;42.78;24.30;;;;;;;;;;5017916;28;20081;-62
2023/12/09 02:27:27;;;;;;;40.10;22.42;;;;;;;;;;5017335;28;20062;-62
2023/12/09 02:30:05;;;;;;;40.88;22.27;;;;;;;;;;5017734;28;20034;-62
2023/12/09 02:32:31;;;;;;;45.92;24.70;;;;;;;;;;5017089;28;20542;-62
2023/12/09 02:34:57;;;;;;;43.78;24.13;;;;;;;;;;5017321;28;20097;-62
2023/12/09 02:37:26;;;;;;;43.67;23.48;;;;;;;;;;5000011;28;20104;-62
2023/12/09 02:39:52;;;;;;;45.70;24.30;;;;;;;;;;5017144;28;20030;-61
2023/12/09 02:42:18;;;;;;;43.10;22.75;;;;;;;;;;4999422;28;20030;-61
2023/12/09 02:44:44;;;;;;;42.67;24.23;;;;;;;;;;4999318;28;20125;-60
2023/12/09 02:47:13;;;;;;;42.20;23.75;;;;;;;;;;5017039;28;20053;-61
2023/12/09 02:49:39;;;;;;;43.83;23.80;;;;;;;;;;5017088;28;20376;-61
2023/12/09 02:52:04;;;;;;;46.40;24.00;;;;;;;;;;5016685;28;20032;-61
2023/12/09 02:54:30;;;;;;;42.95;23.13;;;;;;;;;;5016741;28;20448;-61
2023/12/09 02:56:55;;;;;;;41.60;23.63;;;;;;;;;;5016883;28;20383;-61
2023/12/09 02:59:21;;;;;;;42.50;24.08;;;;;;;;;;5016966;28;20040;-61
2023/12/09 03:01:46;;;;;;;46.85;24.95;;;;;;;;;;5017382;28;20479;-61
2023/12/09 03:04:12;;;;;;;44.97;25.35;;;;;;;;;;5016523;28;20452;-61
2023/12/09 03:06:37;;;;;;;44.17;24.20;;;;;;;;;;5016563;28;20033;-61
2023/12/09 03:09:03;;;;;;;40.13;22.67;;;;;;;;;;5016654;28;20041;-62
2023/12/09 03:11:28;;;;;;;39.45;23.60;;;;;;;;;;4982463;28;20038;-61
2023/12/09 03:13:54;;;;;;;37.72;21.27;;;;;;;;;;5015138;28;20028;-62
2023/12/09 03:16:19;;;;;;;42.88;23.30;;;;;;;;;;5016459;28;20030;-62
2023/12/09 03:18:45;;;;;;;37.97;21.45;;;;;;;;;;5016764;28;20037;-62
2023/12/09 03:21:15;;;;;;;37.38;21.30;;;;;;;;;;5016114;28;20498;-62
2023/12/09 03:23:42;;;;;;;36.65;20.88;;;;;;;;;;5038223;23;20050;-62
2023/12/09 03:26:17;;;;;;;37.40;21.67;;;;;;;;;;5016005;28;20034;-62
2023/12/09 03:28:43;;;;;;;39.30;22.55;;;;;;;;;;4998556;28;20022;-62
2023/12/09 03:31:12;;;;;;;41.17;22.92;;;;;;;;;;5014870;28;20034;-62
2023/12/09 03:33:38;;;;;;;37.17;21.58;;;;;;;;;;5015677;28;20034;-62
2023/12/09 03:36:04;;;;;;;40.88;22.77;;;;;;;;;;5016022;28;20102;-61
2023/12/09 03:38:29;;;;;;;41.05;23.10;;;;;;;;;;5016052;28;20030;-62
2023/12/09 03:40:55;;;;;;;42.58;23.38;;;;;;;;;;4982007;28;20038;-61
2023/12/09 03:43:20;;;;;;;40.00;22.85;;;;;;;;;;5016510;28;20042;-61
2023/12/09 03:45:46;;;;;;;44.03;23.27;;;;;;;;;;5015759;28;20124;-62
2023/12/09 03:48:11;;;;;;;43.88;24.02;;;;;;;;;;5015708;28;20022;-62
2023/12/09 03:50:36;;;;;;;45.90;24.40;;;;;;;;;;5015638;28;20026;-62
2023/12/09 03:53:04;;;;;;;45.58;24.27;;;;;;;;;;5015743;28;20041;-61
2023/12/09 03:55:29;;;;;;;43.85;24.70;;;;;;;;;;5015917;28;20056;-61
2023/12/09 03:57:55;;;;;;;40.15;23.85;;;;;;;;;;5015546;28;20395;-61
2023/12/09 04:00:22;;;;;;;43.72;24.10;;;;;;;;;;5015891;28;20460;-61
2023/12/09 04:02:48;;;;;;;46.05;24.50;;;;;;;;;;4998759;28;20117;-61
2023/12/09 04:05:13;;;;;;;44.95;24.15;;;;;;;;;;5015486;28;20083;-61
2023/12/09 04:07:40;;;;;;;41.97;23.08;;;;;;;;;;5015293;28;20037;-61
2023/12/09 04:10:05;;;;;;;41.03;22.98;;;;;;;;;;5015408;28;20029;-62
2023/12/09 04:12:31;;;;;;;40.60;23.02;;;;;;;;;;5015343;28;20056;-61
2023/12/09 04:14:57;;;;;;;40.40;23.35;;;;;;;;;;5015548;28;20518;-61
2023/12/09 04:17:22;;;;;;;39.35;23.45;;;;;;;;;;5015596;28;20060;-61
2023/12/09 04:19:48;;;;;;;38.67;22.48;;;;;;;;;;5015669;28;20026;-61
2023/12/09 04:22:13;;;;;;;42.38;24.23;;;;;;;;;;5015387;28;20088;-61
2023/12/09 04:24:40;;;;;;;47.80;25.25;;;;;;;;;;4977932;28;20050;-62
2023/12/09 04:27:05;;;;;;;55.28;29.50;;;;;;;;;;4994228;28;20038;-61
2023/12/09 04:29:31;;;;;;;44.08;24.63;;;;;;;;;;4994130;28;20053;-61
2023/12/09 04:31:56;;;;;;;44.45;24.75;;;;;;;;;;4994894;28;20595;-61
2023/12/09 04:34:22;;;;;;;46.65;25.95;;;;;;;;;;4995140;28;20449;-61
2023/12/09 04:36:48;;;;;;;43.90;23.63;;;;;;;;;;4993543;28;20469;-62
2023/12/09 04:39:13;;;;;;;44.20;23.95;;;;;;;;;;4994975;28;20033;-61
2023/12/09 04:41:40;;;;;;;43.63;23.90;;;;;;;;;;4993762;28;20047;-61
2023/12/09 04:44:05;;;;;;;41.13;24.00;;;;;;;;;;4993866;28;20034;-61
2023/12/09 04:46:31;;;;;;;41.78;24.45;;;;;;;;;;4993777;28;20026;-61
2023/12/09 04:48:56;;;;;;;43.30;24.23;;;;;;;;;;4994706;28;20033;-61
2023/12/09 04:51:23;;;;;;;42.20;23.85;;;;;;;;;;4993706;28;20022;-61
2023/12/09 04:53:50;;;;;;;40.90;23.40;;;;;;;;;;4994964;28;20057;-61
2023/12/09 04:56:15;;;;;;;39.80;23.58;;;;;;;;;;4995331;28;20061;-61
2023/12/09 04:58:42;;;;;;;40.70;24.50;;;;;;;;;;4994860;28;20499;-61
2023/12/09 05:01:08;;;;;;;43.67;24.38;;;;;;;;;;4994548;28;20022;-61
2023/12/09 05:03:34;;;;;;;41.17;24.05;;;;;;;;;;4994569;28;20092;-61
2023/12/09 05:06:00;;;;;;;44.83;25.15;;;;;;;;;;4994910;28;20465;-61
2023/12/09 05:08:27;;;;;;;43.35;25.05;;;;;;;;;;4995265;28;20491;-61
2023/12/09 05:10:52;;;;;;;43.20;26.27;;;;;;;;;;4994051;28;20030;-62
2023/12/09 05:13:18;;;;;;;41.08;24.90;;;;;;;;;;4993384;28;20033;-62
2023/12/09 05:15:44;;;;;;;40.92;24.95;;;;;;;;;;4994880;28;20484;-62
2023/12/09 05:18:09;;;;;;;40.45;24.63;;;;;;;;;;4995116;28;20034;-61
2023/12/09 05:20:34;;;;;;;42.35;25.92;;;;;;;;;;4994618;28;20030;-61
2023/12/09 05:23:00;;;;;;;41.03;25.55;;;;;;;;;;4994425;28;20026;-61
2023/12/09 05:25:25;;;;;;;42.85;25.92;;;;;;;;;;5010457;28;20048;-61
2023/12/09 05:27:51;;;;;;;41.55;25.70;;;;;;;;;;4980305;28;20080;-62
2023/12/09 05:30:16;;;;;;;39.90;23.67;;;;;;;;;;5014061;28;20033;-62
2023/12/09 05:32:42;;;;;;;41.42;24.55;;;;;;;;;;5013850;28;20038;-61
2023/12/09 05:35:08;;;;;;;41.05;24.25;;;;;;;;;;5014320;28;20022;-62
2023/12/09 05:37:33;;;;;;;42.63;25.67;;;;;;;;;;5014408;28;20022;-61
2023/12/09 05:39:59;;;;;;;41.22;25.10;;;;;;;;;;5014148;28;20432;-61
2023/12/09 05:42:25;;;;;;;44.20;26.08;;;;;;;;;;5013983;28;20030;-61
2023/12/09 05:44:51;;;;;;;42.50;26.77;;;;;;;;;;5014388;28;20018;-61
2023/12/09 05:47:17;;;;;;;41.10;25.75;;;;;;;;;;5013887;28;20391;-58
2023/12/09 05:49:42;;;;;;;38.63;24.55;;;;;;;;;;5014061;28;20022;-58
2023/12/09 05:52:08;;;;;;;38.25;24.42;;;;;;;;;;5013695;28;20034;-58
2023/12/09 05:54:36;;;;;;;43.15;26.13;;;;;;;;;;5016726;28;20037;-58
2023/12/09 05:57:01;;;;;;;40.78;24.85;;;;;;;;;;5017924;28;20030;-57
2023/12/09 05:59:26;;;;;;;41.10;25.95;;;;;;;;;;5000198;28;20353;-57
2023/12/09 06:01:52;;;;;;;43.47;26.40;;;;;;;;;;5017838;28;20117;-59
2023/12/09 06:04:17;;;;;;;42.33;26.50;;;;;;;;;;4984164;28;20064;-59
2023/12/09 06:06:43;;;;;;;45.72;28.63;;;;;;;;;;5018414;28;20109;-57
2023/12/09 06:09:09;;;;;;;42.70;26.85;;;;;;;;;;5017675;28;20121;-59
2023/12/09 06:11:34;;;;;;;41.13;27.38;;;;;;;;;;4983571;28;20030;-58
2023/12/09 06:14:00;;;;;;;43.20;26.73;;;;;;;;;;5018006;28;20037;-59
2023/12/09 06:16:25;;;;;;;44.15;27.85;;;;;;;;;;5017864;28;20036;-58
2023/12/09 06:18:51;;;;;;;43.88;26.55;;;;;;;;;;5017965;28;20030;-59
2023/12/09 06:21:20;;;;;;;46.70;27.25;;;;;;;;;;5017032;28;20028;-59
2023/12/09 06:23:46;;;;;;;42.60;26.48;;;;;;;;;;5017619;28;20037;-58
2023/12/09 06:26:12;;;;;;;42.60;26.50;;;;;;;;;;5017445;28;20026;-61
2023/12/09 06:28:37;;;;;;;53.50;31.98;;;;;;;;;;5017297;28;20061;-60
2023/12/09 06:31:03;;;;;;;56.53;32.80;;;;;;;;;;5016955;28;20037;-59
2023/12/09 06:33:28;;;;;;;61.10;35.63;;;;;;;;;;5017410;28;20022;-58
2023/12/09 06:35:54;;;;;;;49.00;28.77;;;;;;;;;;4999817;28;20480;-58
2023/12/09 06:38:19;;;;;;;45.35;27.15;;;;;;;;;;5017735;28;20081;-59
2023/12/09 06:40:44;;;;;;;46.67;29.00;;;;;;;;;;5017099;28;20030;-59
2023/12/09 06:43:11;;;;;;;97.63;68.90;;;;;;;;;;4999284;28;20384;-58
2023/12/09 06:45:36;;;;;;;95.40;76.57;;;;;;;;;;5016491;28;20109;-58
2023/12/09 06:48:02;;;;;;;61.70;46.70;;;;;;;;;;5017541;28;20061;-58
2023/12/09 06:50:27;;;;;;;40.67;25.38;;;;;;;;;;5017362;28;20372;-58
2023/12/09 06:52:53;;;;;;;39.45;24.23;;;;;;;;;;5016795;28;20062;-59
2023/12/09 06:55:18;;;;;;;40.30;23.85;;;;;;;;;;5015548;28;20116;-58
2023/12/09 06:57:43;;;;;;;39.05;24.33;;;;;;;;;;5016832;28;20028;-58
2023/12/09 07:00:09;;;;;;;39.90;24.88;;;;;;;;;;5016787;28;20022;-58
2023/12/09 07:02:34;;;;;;;44.30;28.10;;;;;;;;;;4982610;28;20480;-60
2023/12/09 07:05:01;;;;;;;44.08;27.08;;;;;;;;;;4997823;28;20025;-59
2023/12/09 07:07:26;;;;;;;45.40;29.05;;;;;;;;;;5016561;28;20126;-59
2023/12/09 07:09:54;;;;;;;46.78;30.77;;;;;;;;;;5016701;28;20112;-59
2023/12/09 07:12:20;;;;;;;45.42;27.55;;;;;;;;;;5016561;28;20067;-59
2023/12/09 07:14:47;;;;;;;39.28;25.30;;;;;;;;;;5016348;28;20034;-59
2023/12/09 07:17:13;;;;;;;42.85;26.35;;;;;;;;;;5016291;28;20026;-59
2023/12/09 07:19:39;;;;;;;91.93;59.55;;;;;;;;;;5015885;28;20034;-59
2023/12/09 07:22:05;;;;;;;106.93;69.55;;;;;;;;;;5016720;28;20038;-59
2023/12/09 07:24:30;;;;;;;69.40;44.72;;;;;;;;;;5015894;28;20065;-59
2023/12/09 07:26:57;;;;;;;294.60;155.98;;;;;;;;;;5016400;28;20077;-59
2023/12/09 07:29:24;;;;;;;184.88;100.72;;;;;;;;;;5016209;28;20061;-59
2023/12/09 07:32:00;;;;;;;276.02;127.53;;;;;;;;;;5015758;28;20033;-62
2023/12/09 07:34:26;;;;;;;116.28;64.10;;;;;;;;;;5016609;28;20160;-62
2023/12/09 07:36:51;;;;;;;82.70;49.33;;;;;;;;;;5015785;28;20108;-62
2023/12/09 07:39:17;;;;;;;365.38;160.98;;;;;;;;;;5015896;28;20052;-62
2023/12/09 07:41:43;;;;;;;190.32;91.53;;;;;;;;;;5016672;28;20030;-62
2023/12/09 07:44:09;;;;;;;246.20;118.60;;;;;;;;;;5016271;28;20037;-62
2023/12/09 07:46:35;;;;;;;168.95;86.55;;;;;;;;;;5015214;28;20037;-62
2023/12/09 07:49:01;;;;;;;94.10;52.58;;;;;;;;;;5015678;28;20041;-62
2023/12/09 07:51:27;;;;;;;150.43;79.10;;;;;;;;;;5015882;28;20531;-62
2023/12/09 07:53:52;;;;;;;133.40;71.38;;;;;;;;;;5015922;28;20068;-62
2023/12/09 07:56:17;;;;;;;78.20;44.08;;;;;;;;;;5014234;28;20026;-62
2023/12/09 07:58:45;;;;;;;62.22;36.38;;;;;;;;;;5013933;28;20030;-62
2023/12/09 08:01:11;;;;;;;137.95;65.72;;;;;;;;;;5014240;28;20030;-62
2023/12/09 08:03:36;;;;;;;77.60;40.78;;;;;;;;;;5014324;28;20611;-62
2023/12/09 08:06:02;;;;;;;43.05;27.67;;;;;;;;;;5014339;28;20034;-62
2023/12/09 08:08:29;;;;;;;43.58;29.00;;;;;;;;;;5014311;28;20417;-62
2023/12/09 08:10:54;;;;;;;42.88;28.08;;;;;;;;;;5014155;28;20112;-62
2023/12/09 08:13:20;;;;;;;40.33;26.67;;;;;;;;;;5014331;28;20109;-62
2023/12/09 08:15:45;;;;;;;42.25;28.17;;;;;;;;;;5013763;28;20025;-62
2023/12/09 08:18:10;;;;;;;52.30;33.35;;;;;;;;;;5014142;28;20156;-62
2023/12/09 08:20:36;;;;;;;51.65;31.15;;;;;;;;;;5013988;28;20066;-63
2023/12/09 08:23:01;;;;;;;55.90;33.17;;;;;;;;;;4996420;28;20033;-63
2023/12/09 08:25:27;;;;;;;47.47;29.83;;;;;;;;;;5014166;28;20500;-62
2023/12/09 08:27:53;;;;;;;45.30;28.65;;;;;;;;;;5013796;28;20041;-62
2023/12/09 08:30:18;;;;;;;39.90;25.88;;;;;;;;;;5013772;28;20034;-62
2023/12/09 08:32:43;;;;;;;59.97;35.92;;;;;;;;;;5013611;28;20036;-62
2023/12/09 08:35:09;;;;;;;60.03;37.17;;;;;;;;;;5014024;28;20080;-62
2023/12/09 08:37:35;;;;;;;69.65;41.75;;;;;;;;;;5013869;28;20022;-62
2023/12/09 08:40:05;;;;;;;46.10;29.67;;;;;;;;;;5013782;28;20030;-62
2023/12/09 08:42:31;;;;;;;40.63;25.55;;;;;;;;;;5013652;28;20029;-63
2023/12/09 08:44:57;;;;;;;35.92;22.38;;;;;;;;;;4996563;28;20052;-63
2023/12/09 08:47:22;;;;;;;38.50;24.65;;;;;;;;;;5013477;28;20538;-63
2023/12/09 08:49:47;;;;;;;45.80;26.60;;;;;;;;;;5013351;28;20030;-63
2023/12/09 08:52:12;;;;;;;52.38;28.58;;;;;;;;;;5013430;28;20017;-63
2023/12/09 08:54:38;;;;;;;68.47;37.35;;;;;;;;;;5013294;28;20030;-63
2023/12/09 08:57:03;;;;;;;71.50;38.83;;;;;;;;;;5013294;28;20026;-62
2023/12/09 08:59:29;;;;;;;78.10;41.88;;;;;;;;;;5013391;28;20030;-63
2023/12/09 09:01:54;;;;;;;74.20;43.17;;;;;;;;;;5013329;28;20049;-63
2023/12/09 09:04:20;;;;;;;63.58;38.70;;;;;;;;;;5013381;28;20057;-63
2023/12/09 09:06:46;;;;;;;52.88;33.25;;;;;;;;;;4995207;28;20128;-63
2023/12/09 09:09:11;;;;;;;51.28;34.33;;;;;;;;;;5013041;28;20084;-62
2023/12/09 09:11:37;;;;;;;55.60;33.17;;;;;;;;;;4995151;28;20038;-63
2023/12/09 09:14:02;;;;;;;73.05;36.17;;;;;;;;;;5013246;28;20495;-63
2023/12/09 09:16:27;;;;;;;76.70;40.20;;;;;;;;;;5012888;28;20460;-63
2023/12/09 09:18:53;;;;;;;65.93;32.55;;;;;;;;;;5012796;28;20022;-63
2023/12/09 09:21:18;;;;;;;65.72;31.15;;;;;;;;;;5013163;28;20041;-63
2023/12/09 09:23:43;;;;;;;83.65;34.95;;;;;;;;;;5012505;28;20022;-63
2023/12/09 09:26:09;;;;;;;100.35;42.40;;;;;;;;;;4995384;28;20502;-63
2023/12/09 09:28:34;;;;;;;85.00;40.53;;;;;;;;;;5012007;28;20092;-63
2023/12/09 09:30:59;;;;;;;68.25;34.70;;;;;;;;;;5012605;28;20040;-63
2023/12/09 09:33:25;;;;;;;43.13;26.27;;;;;;;;;;5012884;28;20109;-63
2023/12/09 09:35:53;;;;;;;39.22;23.90;;;;;;;;;;5013021;28;20411;-62
2023/12/09 09:38:19;;;;;;;44.42;26.45;;;;;;;;;;5012549;28;20030;-62
2023/12/09 09:40:44;;;;;;;50.45;29.88;;;;;;;;;;5012621;28;20092;-62
2023/12/09 09:43:18;;;;;;;54.75;30.90;;;;;;;;;;5013126;28;20423;-63
2023/12/09 09:45:44;;;;;;;54.30;30.77;;;;;;;;;;5012403;28;20447;-63
2023/12/09 09:48:10;;;;;;;70.95;34.03;;;;;;;;;;5011915;28;20030;-63
2023/12/09 09:50:42;;;;;;;46.10;26.73;;;;;;;;;;5010933;28;20034;-63
2023/12/09 09:53:10;;;;;;;34.30;21.30;;;;;;;;;;5011360;28;20472;-63
2023/12/09 09:55:39;;;;;;;50.28;27.05;;;;;;;;;;4995549;28;20068;-63
2023/12/09 09:58:06;;;;;;;34.58;21.55;;;;;;;;;;4995060;28;20074;-63
2023/12/09 10:00:31;;;;;;;36.92;23.33;;;;;;;;;;5011708;28;20026;-63
2023/12/09 10:02:57;;;;;;;42.03;26.75;;;;;;;;;;5013569;28;20420;-63
2023/12/09 10:05:22;;;;;;;31.38;20.65;;;;;;;;;;5012294;28;20035;-63
2023/12/09 10:07:47;;;;;;;36.55;21.95;;;;;;;;;;4995075;28;20128;-62
2023/12/09 10:10:14;;;;;;;38.10;23.77;;;;;;;;;;5013528;28;20065;-62
2023/12/09 10:12:40;;;;;;;35.05;20.80;;;;;;;;;;5013311;28;20472;-62
2023/12/09 10:15:06;;;;;;;37.70;23.00;;;;;;;;;;5013379;28;20033;-62
2023/12/09 10:17:32;;;;;;;38.08;22.42;;;;;;;;;;5013231;28;20437;-62
2023/12/09 10:20:01;;;;;;;34.97;21.63;;;;;;;;;;5013676;28;20060;-62
2023/12/09 10:22:27;;;;;;;35.40;21.85;;;;;;;;;;5013720;28;20029;-62
2023/12/09 10:24:52;;;;;;;39.65;22.77;;;;;;;;;;5012914;28;20038;-62
2023/12/09 10:27:27;;;;;;;46.05;23.88;;;;;;;;;;5013416;28;20471;-62
2023/12/09 10:29:52;;;;;;;45.67;25.00;;;;;;;;;;5013605;28;20040;-62
2023/12/09 10:32:19;;;;;;;39.00;22.90;;;;;;;;;;5013398;28;20017;-62
2023/12/09 10:34:45;;;;;;;28.55;16.67;;;;;;;;;;5011860;28;20468;-62
2023/12/09 10:37:11;;;;;;;38.38;22.98;;;;;;;;;;5012714;28;20029;-63
2023/12/09 10:39:36;;;;;;;39.80;24.02;;;;;;;;;;5014380;28;20030;-63
2023/12/09 10:42:05;;;;;;;48.25;28.63;;;;;;;;;;5017086;28;20106;-63
2023/12/09 10:44:31;;;;;;;29.90;18.58;;;;;;;;;;4999527;28;20707;-62
2023/12/09 10:46:56;;;;;;;26.75;16.67;;;;;;;;;;5016634;28;20038;-62
2023/12/09 10:49:22;;;;;;;26.88;16.83;;;;;;;;;;5015709;28;20096;-62
2023/12/09 10:51:47;;;;;;;27.52;15.82;;;;;;;;;;5017040;28;20595;-62
2023/12/09 10:54:12;;;;;;;26.60;17.08;;;;;;;;;;4983178;28;20408;-63
2023/12/09 10:56:39;;;;;;;27.10;17.73;;;;;;;;;;5016974;28;20014;-62
2023/12/09 10:59:05;;;;;;;32.38;19.15;;;;;;;;;;5016765;28;20034;-62
2023/12/09 11:01:30;;;;;;;29.23;18.55;;;;;;;;;;5016441;28;20033;-62
2023/12/09 11:03:56;;;;;;;28.45;17.90;;;;;;;;;;5016550;28;20545;-62
2023/12/09 11:06:22;;;;;;;26.83;17.48;;;;;;;;;;5016270;28;20603;-62
2023/12/09 11:08:48;;;;;;;32.92;20.88;;;;;;;;;;5016080;28;20053;-62
2023/12/09 11:11:15;;;;;;;29.95;19.13;;;;;;;;;;5015456;28;20127;-62
2023/12/09 11:13:44;;;;;;;25.52;16.42;;;;;;;;;;5015453;28;20037;-62
2023/12/09 11:16:11;;;;;;;23.45;15.65;;;;;;;;;;5015250;28;20033;-62
2023/12/09 11:18:46;;;;;;;28.40;17.52;;;;;;;;;;4997944;28;20416;-63
2023/12/09 11:21:13;;;;;;;24.23;15.07;;;;;;;;;;5015416;28;20029;-63
2023/12/09 11:23:42;;;;;;;24.83;15.35;;;;;;;;;;4997904;28;20030;-62
2023/12/09 11:26:12;;;;;;;26.75;17.88;;;;;;;;;;5014815;28;20119;-62
2023/12/09 11:28:37;;;;;;;30.60;21.00;;;;;;;;;;5015741;28;20116;-62
2023/12/09 11:31:03;;;;;;;24.27;14.82;;;;;;;;;;5014435;28;20482;-62
2023/12/09 11:33:28;;;;;;;26.40;16.92;;;;;;;;;;4997839;28;20061;-63
2023/12/09 11:35:55;;;;;;;28.45;18.10;;;;;;;;;;5014859;28;20058;-63
2023/12/09 11:38:20;;;;;;;27.85;16.73;;;;;;;;;;5015339;28;20026;-63
2023/12/09 11:40:46;;;;;;;29.13;17.27;;;;;;;;;;5014649;28;20056;-63
2023/12/09 11:43:12;;;;;;;29.02;18.20;;;;;;;;;;5014493;28;20022;-63
2023/12/09 11:45:38;;;;;;;26.45;15.85;;;;;;;;;;5013383;28;20022;-63
2023/12/09 11:48:04;;;;;;;29.65;16.27;;;;;;;;;;5015027;28;20040;-63
2023/12/09 11:50:29;;;;;;;30.10;19.10;;;;;;;;;;5014135;28;20014;-63
2023/12/09 11:52:55;;;;;;;25.00;17.25;;;;;;;;;;5013907;28;20030;-63
2023/12/09 11:55:20;;;;;;;29.35;19.02;;;;;;;;;;5014259;28;20041;-63
2023/12/09 11:57:46;;;;;;;30.17;17.95;;;;;;;;;;5014428;28;20038;-62
2023/12/09 12:00:11;;;;;;;24.98;15.82;;;;;;;;;;5014608;28;20034;-63
2023/12/09 12:02:38;;;;;;;27.33;16.38;;;;;;;;;;4997041;28;20033;-63
2023/12/09 12:05:04;;;;;;;31.77;19.67;;;;;;;;;;5014320;28;20021;-63
2023/12/09 12:07:30;;;;;;;21.75;15.13;;;;;;;;;;5014192;28;20044;-63
2023/12/09 12:09:55;;;;;;;24.02;16.08;;;;;;;;;;5014313;28;20030;-63
2023/12/09 12:12:21;;;;;;;32.17;20.13;;;;;;;;;;5014018;28;20034;-63
2023/12/09 12:14:46;;;;;;;23.25;15.23;;;;;;;;;;4996416;28;20089;-63
2023/12/09 12:17:12;;;;;;;23.95;15.40;;;;;;;;;;5014400;28;20041;-63
2023/12/09 12:19:39;;;;;;;26.92;18.33;;;;;;;;;;5013825;28;20030;-63
2023/12/09 12:22:05;;;;;;;25.73;16.75;;;;;;;;;;5012750;28;20475;-63
2023/12/09 12:24:41;;;;;;;27.95;18.20;;;;;;;;;;4980334;28;20050;-63
2023/12/09 12:27:07;;;;;;;34.92;22.15;;;;;;;;;;5014423;28;20120;-63
2023/12/09 12:29:32;;;;;;;41.70;23.73;;;;;;;;;;5014282;28;20105;-62
2023/12/09 12:31:58;;;;;;;42.53;24.83;;;;;;;;;;5014091;28;20029;-63
2023/12/09 12:34:24;;;;;;;39.40;23.00;;;;;;;;;;5013643;28;20029;-63
2023/12/09 12:36:49;;;;;;;35.25;20.67;;;;;;;;;;5013544;28;20395;-65
2023/12/09 12:39:15;;;;;;;40.88;23.80;;;;;;;;;;4996507;28;20014;-61
2023/12/09 12:41:40;;;;;;;36.65;23.65;;;;;;;;;;5013457;28;20430;-62
2023/12/09 12:44:06;;;;;;;37.72;23.75;;;;;;;;;;4996439;28;20042;-65
2023/12/09 12:46:40;;;;;;;38.45;23.75;;;;;;;;;;4997006;28;20026;-62
2023/12/09 12:49:05;;;;;;;41.03;25.25;;;;;;;;;;5014219;28;20026;-62
2023/12/09 12:51:31;;;;;;;28.65;18.10;;;;;;;;;;5014009;28;20034;-62
2023/12/09 12:53:57;;;;;;;30.80;18.92;;;;;;;;;;5014078;28;20156;-63
2023/12/09 12:56:24;;;;;;;24.92;17.00;;;;;;;;;;5013862;28;20062;-62
2023/12/09 12:58:49;;;;;;;30.73;20.58;;;;;;;;;;5013326;28;20021;-59
2023/12/09 13:01:14;;;;;;;30.45;19.63;;;;;;;;;;4995789;28;20435;-59
2023/12/09 13:03:40;;;;;;;33.72;22.17;;;;;;;;;;5013076;28;20503;-59
2023/12/09 13:06:05;;;;;;;35.08;22.67;;;;;;;;;;5013052;28;20061;-59
2023/12/09 13:08:31;;;;;;;31.35;22.45;;;;;;;;;;5013425;28;20424;-60
2023/12/09 13:10:57;;;;;;;34.25;21.95;;;;;;;;;;5012852;28;20044;-59
2023/12/09 13:13:22;;;;;;;40.08;25.88;;;;;;;;;;5012855;28;20025;-59
2023/12/09 13:15:48;;;;;;;47.55;28.17;;;;;;;;;;5013326;28;20026;-59
2023/12/09 13:18:13;;;;;;;36.72;23.95;;;;;;;;;;5013807;28;20727;-59
2023/12/09 13:20:39;;;;;;;34.88;21.40;;;;;;;;;;5013820;28;20357;-59
2023/12/09 13:23:04;;;;;;;41.72;25.02;;;;;;;;;;5014011;28;20030;-59
2023/12/09 13:25:30;;;;;;;42.95;26.73;;;;;;;;;;5013608;28;20046;-59
2023/12/09 13:27:56;;;;;;;37.40;25.20;;;;;;;;;;5013919;28;20033;-59
2023/12/09 13:30:21;;;;;;;35.83;23.92;;;;;;;;;;5013924;28;20033;-59
2023/12/09 13:32:48;;;;;;;37.13;22.77;;;;;;;;;;5009004;28;20034;-59
2023/12/09 13:35:14;;;;;;;33.50;21.38;;;;;;;;;;5009188;28;20026;-59
2023/12/09 13:37:40;;;;;;;38.92;23.40;;;;;;;;;;5013195;28;20559;-59
2023/12/09 13:40:06;;;;;;;41.30;25.77;;;;;;;;;;5012618;28;20046;-58
2023/12/09 13:42:32;;;;;;;38.95;23.88;;;;;;;;;;5010639;28;20030;-59
2023/12/09 13:44:58;;;;;;;34.28;22.05;;;;;;;;;;5012184;28;20037;-59
2023/12/09 13:47:24;;;;;;;37.92;25.17;;;;;;;;;;4994720;28;20042;-59
2023/12/09 13:49:49;;;;;;;39.08;24.17;;;;;;;;;;4993767;28;20038;-58
2023/12/09 13:52:16;;;;;;;36.92;22.88;;;;;;;;;;4976361;28;20030;-59
2023/12/09 13:54:44;;;;;;;44.70;28.77;;;;;;;;;;4993595;28;20080;-59
2023/12/09 13:57:10;;;;;;;41.80;27.58;;;;;;;;;;4975991;28;20089;-59
2023/12/09 13:59:35;;;;;;;48.55;30.83;;;;;;;;;;4994307;28;20102;-59
2023/12/09 14:02:01;;;;;;;52.65;32.42;;;;;;;;;;4983168;28;20077;-59
2023/12/09 14:04:27;;;;;;;61.90;38.17;;;;;;;;;;4978736;28;20088;-59
2023/12/09 14:06:53;;;;;;;46.80;28.75;;;;;;;;;;4992532;28;20035;-58
2023/12/09 14:09:18;;;;;;;35.88;22.13;;;;;;;;;;4993070;28;20034;-58